sensor_id;sensor_type;location;lat;lon;timestamp;P1;durP1;ratioP1;P2;durP2;ratioP2
22476;SDS011;11405;51.698;-0.292;2022-08-19T00:01:27;1.50;;;0.55;;
22476;SDS011;11405;51.698;-0.292;2022-08-19T00:03:55;3.47;;;0.63;;
22476;SDS011;11405;51.698;-0.292;2022-08-19T00:06:21;1.90;;;0.60;;
22476;SDS011;11405;51.698;-0.292;2022-08-19T00:08:47;3.83;;;0.88;;
22476;SDS011;11405;51.698;-0.292;2022-08-19T00:11:13;1.17;;;0.80;;
22476;SDS011;11405;51.698;-0.292;2022-08-19T00:13:39;2.05;;;0.70;;
22476;SDS011;11405;51.698;-0.292;2022-08-19T00:16:06;0.90;;;0.68;;
22476;SDS011;11405;51.698;-0.292;2022-08-19T00:20:58;0.73;;;0.55;;
22476;SDS011;11405;51.698;-0.292;2022-08-19T00:23:24;1.05;;;0.70;;
22476;SDS011;11405;51.698;-0.292;2022-08-19T00:25:51;4.70;;;0.90;;
22476;SDS011;11405;51.698;-0.292;2022-08-19T00:28:17;2.22;;;0.60;;
22476;SDS011;11405;51.698;-0.292;2022-08-19T00:33:09;1.23;;;0.70;;
22476;SDS011;11405;51.698;-0.292;2022-08-19T00:35:36;4.25;;;1.08;;
22476;SDS011;11405;51.698;-0.292;2022-08-19T00:38:03;1.20;;;1.02;;
22476;SDS011;11405;51.698;-0.292;2022-08-19T00:40:30;2.50;;;0.80;;
22476;SDS011;11405;51.698;-0.292;2022-08-19T00:42:56;1.17;;;0.98;;
22476;SDS011;11405;51.698;-0.292;2022-08-19T00:45:23;1.65;;;0.85;;
22476;SDS011;11405;51.698;-0.292;2022-08-19T00:47:49;1.45;;;1.00;;
22476;SDS011;11405;51.698;-0.292;2022-08-19T00:50:16;2.60;;;1.00;;
22476;SDS011;11405;51.698;-0.292;2022-08-19T00:52:43;2.45;;;1.17;;
22476;SDS011;11405;51.698;-0.292;2022-08-19T00:55:13;1.45;;;0.90;;
22476;SDS011;11405;51.698;-0.292;2022-08-19T00:57:40;2.30;;;1.30;;
22476;SDS011;11405;51.698;-0.292;2022-08-19T01:00:11;3.33;;;1.02;;
22476;SDS011;11405;51.698;-0.292;2022-08-19T01:02:38;1.48;;;1.00;;
22476;SDS011;11405;51.698;-0.292;2022-08-19T01:05:05;2.03;;;0.95;;
22476;SDS011;11405;51.698;-0.292;2022-08-19T01:07:33;2.20;;;1.20;;
22476;SDS011;11405;51.698;-0.292;2022-08-19T01:09:59;3.55;;;1.10;;
22476;SDS011;11405;51.698;-0.292;2022-08-19T01:12:25;1.50;;;0.95;;
22476;SDS011;11405;51.698;-0.292;2022-08-19T01:14:51;3.22;;;1.30;;
22476;SDS011;11405;51.698;-0.292;2022-08-19T01:17:18;2.83;;;1.05;;
22476;SDS011;11405;51.698;-0.292;2022-08-19T01:19:45;5.20;;;1.65;;
22476;SDS011;11405;51.698;-0.292;2022-08-19T01:24:50;1.70;;;1.40;;
22476;SDS011;11405;51.698;-0.292;2022-08-19T01:27:17;3.05;;;1.45;;
22476;SDS011;11405;51.698;-0.292;2022-08-19T01:29:43;3.90;;;1.75;;
22476;SDS011;11405;51.698;-0.292;2022-08-19T01:32:11;2.42;;;1.67;;
22476;SDS011;11405;51.698;-0.292;2022-08-19T01:34:37;3.08;;;1.95;;
22476;SDS011;11405;51.698;-0.292;2022-08-19T01:37:10;3.28;;;1.70;;
22476;SDS011;11405;51.698;-0.292;2022-08-19T01:39:37;5.25;;;1.50;;
22476;SDS011;11405;51.698;-0.292;2022-08-19T01:42:04;5.97;;;1.75;;
22476;SDS011;11405;51.698;-0.292;2022-08-19T01:44:32;6.28;;;1.55;;
22476;SDS011;11405;51.698;-0.292;2022-08-19T01:46:58;3.75;;;1.10;;
22476;SDS011;11405;51.698;-0.292;2022-08-19T01:49:24;5.90;;;1.48;;
22476;SDS011;11405;51.698;-0.292;2022-08-19T01:51:51;6.82;;;1.95;;
22476;SDS011;11405;51.698;-0.292;2022-08-19T01:54:19;3.10;;;1.58;;
22476;SDS011;11405;51.698;-0.292;2022-08-19T01:56:45;4.70;;;1.40;;
22476;SDS011;11405;51.698;-0.292;2022-08-19T01:59:12;4.07;;;1.58;;
22476;SDS011;11405;51.698;-0.292;2022-08-19T02:01:40;2.13;;;1.30;;
22476;SDS011;11405;51.698;-0.292;2022-08-19T02:04:06;2.40;;;1.48;;
22476;SDS011;11405;51.698;-0.292;2022-08-19T02:06:32;2.30;;;1.58;;
22476;SDS011;11405;51.698;-0.292;2022-08-19T02:08:58;15.27;;;1.83;;
22476;SDS011;11405;51.698;-0.292;2022-08-19T02:11:26;3.03;;;1.90;;
22476;SDS011;11405;51.698;-0.292;2022-08-19T02:13:53;6.28;;;1.45;;
22476;SDS011;11405;51.698;-0.292;2022-08-19T02:16:20;3.50;;;1.40;;
22476;SDS011;11405;51.698;-0.292;2022-08-19T02:18:46;6.60;;;1.77;;
22476;SDS011;11405;51.698;-0.292;2022-08-19T02:23:39;5.50;;;1.65;;
22476;SDS011;11405;51.698;-0.292;2022-08-19T02:26:05;4.50;;;0.98;;
22476;SDS011;11405;51.698;-0.292;2022-08-19T02:28:31;2.35;;;1.40;;
22476;SDS011;11405;51.698;-0.292;2022-08-19T02:33:25;4.20;;;1.30;;
22476;SDS011;11405;51.698;-0.292;2022-08-19T02:35:51;6.07;;;1.60;;
22476;SDS011;11405;51.698;-0.292;2022-08-19T02:38:17;4.72;;;1.60;;
22476;SDS011;11405;51.698;-0.292;2022-08-19T02:40:53;2.10;;;1.40;;
22476;SDS011;11405;51.698;-0.292;2022-08-19T02:43:20;4.10;;;1.60;;
22476;SDS011;11405;51.698;-0.292;2022-08-19T02:45:46;3.22;;;1.10;;
22476;SDS011;11405;51.698;-0.292;2022-08-19T02:48:14;2.00;;;1.45;;
22476;SDS011;11405;51.698;-0.292;2022-08-19T02:50:42;5.45;;;1.45;;
22476;SDS011;11405;51.698;-0.292;2022-08-19T02:53:08;3.47;;;1.58;;
22476;SDS011;11405;51.698;-0.292;2022-08-19T02:55:34;3.10;;;1.20;;
22476;SDS011;11405;51.698;-0.292;2022-08-19T02:58:00;5.40;;;1.38;;
22476;SDS011;11405;51.698;-0.292;2022-08-19T03:00:26;4.00;;;1.70;;
22476;SDS011;11405;51.698;-0.292;2022-08-19T03:02:53;3.67;;;1.73;;
22476;SDS011;11405;51.698;-0.292;2022-08-19T03:05:19;4.40;;;1.52;;
22476;SDS011;11405;51.698;-0.292;2022-08-19T03:07:45;5.55;;;1.45;;
22476;SDS011;11405;51.698;-0.292;2022-08-19T03:10:11;2.65;;;1.45;;
22476;SDS011;11405;51.698;-0.292;2022-08-19T03:12:38;6.82;;;1.90;;
22476;SDS011;11405;51.698;-0.292;2022-08-19T03:15:05;3.85;;;1.83;;
22476;SDS011;11405;51.698;-0.292;2022-08-19T03:17:32;1.55;;;1.15;;
22476;SDS011;11405;51.698;-0.292;2022-08-19T03:19:58;3.55;;;1.38;;
22476;SDS011;11405;51.698;-0.292;2022-08-19T03:22:24;2.90;;;1.80;;
22476;SDS011;11405;51.698;-0.292;2022-08-19T03:24:50;3.53;;;1.55;;
22476;SDS011;11405;51.698;-0.292;2022-08-19T03:27:16;5.38;;;1.95;;
22476;SDS011;11405;51.698;-0.292;2022-08-19T03:29:42;8.75;;;2.22;;
22476;SDS011;11405;51.698;-0.292;2022-08-19T03:32:10;5.65;;;1.75;;
22476;SDS011;11405;51.698;-0.292;2022-08-19T03:34:37;6.75;;;1.92;;
22476;SDS011;11405;51.698;-0.292;2022-08-19T03:37:06;6.50;;;1.98;;
22476;SDS011;11405;51.698;-0.292;2022-08-19T03:39:33;3.58;;;1.73;;
22476;SDS011;11405;51.698;-0.292;2022-08-19T03:41:59;3.40;;;1.85;;
22476;SDS011;11405;51.698;-0.292;2022-08-19T03:44:27;4.00;;;2.03;;
22476;SDS011;11405;51.698;-0.292;2022-08-19T03:46:54;3.85;;;1.88;;
22476;SDS011;11405;51.698;-0.292;2022-08-19T03:49:20;9.88;;;2.10;;
22476;SDS011;11405;51.698;-0.292;2022-08-19T03:51:48;6.10;;;2.72;;
22476;SDS011;11405;51.698;-0.292;2022-08-19T03:54:16;4.53;;;1.88;;
22476;SDS011;11405;51.698;-0.292;2022-08-19T03:56:42;5.38;;;2.00;;
22476;SDS011;11405;51.698;-0.292;2022-08-19T03:59:09;6.70;;;1.80;;
22476;SDS011;11405;51.698;-0.292;2022-08-19T04:01:36;5.53;;;2.25;;
22476;SDS011;11405;51.698;-0.292;2022-08-19T04:04:02;6.68;;;2.30;;
22476;SDS011;11405;51.698;-0.292;2022-08-19T04:06:29;4.65;;;1.80;;
22476;SDS011;11405;51.698;-0.292;2022-08-19T04:08:56;5.18;;;2.00;;
22476;SDS011;11405;51.698;-0.292;2022-08-19T04:11:27;3.17;;;2.00;;
22476;SDS011;11405;51.698;-0.292;2022-08-19T04:13:53;5.35;;;1.80;;
22476;SDS011;11405;51.698;-0.292;2022-08-19T04:16:23;7.90;;;2.38;;
22476;SDS011;11405;51.698;-0.292;2022-08-19T04:18:50;4.68;;;2.22;;
22476;SDS011;11405;51.698;-0.292;2022-08-19T04:21:17;4.50;;;1.65;;
22476;SDS011;11405;51.698;-0.292;2022-08-19T04:23:44;2.78;;;1.77;;
22476;SDS011;11405;51.698;-0.292;2022-08-19T04:26:14;3.30;;;1.55;;
22476;SDS011;11405;51.698;-0.292;2022-08-19T04:28:41;3.33;;;1.45;;
22476;SDS011;11405;51.698;-0.292;2022-08-19T04:31:11;5.43;;;1.83;;
22476;SDS011;11405;51.698;-0.292;2022-08-19T04:33:38;4.03;;;1.92;;
22476;SDS011;11405;51.698;-0.292;2022-08-19T04:36:04;3.60;;;1.38;;
22476;SDS011;11405;51.698;-0.292;2022-08-19T04:38:30;2.75;;;1.20;;
22476;SDS011;11405;51.698;-0.292;2022-08-19T04:40:56;2.47;;;1.38;;
22476;SDS011;11405;51.698;-0.292;2022-08-19T04:43:40;5.25;;;1.50;;
22476;SDS011;11405;51.698;-0.292;2022-08-19T04:46:07;1.02;;;0.90;;
22476;SDS011;11405;51.698;-0.292;2022-08-19T04:48:34;1.77;;;1.00;;
22476;SDS011;11405;51.698;-0.292;2022-08-19T04:53:27;3.00;;;0.88;;
22476;SDS011;11405;51.698;-0.292;2022-08-19T04:55:57;1.65;;;1.02;;
22476;SDS011;11405;51.698;-0.292;2022-08-19T04:58:24;2.50;;;1.20;;
22476;SDS011;11405;51.698;-0.292;2022-08-19T05:00:50;1.50;;;0.88;;
22476;SDS011;11405;51.698;-0.292;2022-08-19T05:03:16;1.80;;;1.10;;
22476;SDS011;11405;51.698;-0.292;2022-08-19T05:05:46;2.22;;;0.88;;
22476;SDS011;11405;51.698;-0.292;2022-08-19T05:08:16;1.80;;;0.70;;
22476;SDS011;11405;51.698;-0.292;2022-08-19T05:10:47;2.55;;;1.25;;
22476;SDS011;11405;51.698;-0.292;2022-08-19T05:13:14;3.53;;;1.15;;
22476;SDS011;11405;51.698;-0.292;2022-08-19T05:15:41;1.80;;;1.33;;
22476;SDS011;11405;51.698;-0.292;2022-08-19T05:18:07;1.40;;;0.80;;
22476;SDS011;11405;51.698;-0.292;2022-08-19T05:20:52;2.90;;;1.10;;
22476;SDS011;11405;51.698;-0.292;2022-08-19T05:23:36;2.15;;;1.00;;
22476;SDS011;11405;51.698;-0.292;2022-08-19T05:26:02;1.35;;;1.02;;
22476;SDS011;11405;51.698;-0.292;2022-08-19T05:28:29;0.93;;;0.75;;
22476;SDS011;11405;51.698;-0.292;2022-08-19T05:30:55;1.17;;;0.80;;
22476;SDS011;11405;51.698;-0.292;2022-08-19T05:33:21;0.90;;;0.77;;
22476;SDS011;11405;51.698;-0.292;2022-08-19T05:35:48;3.33;;;1.00;;
22476;SDS011;11405;51.698;-0.292;2022-08-19T05:40:40;1.58;;;0.80;;
22476;SDS011;11405;51.698;-0.292;2022-08-19T05:43:07;3.40;;;0.95;;
22476;SDS011;11405;51.698;-0.292;2022-08-19T05:45:38;1.83;;;0.80;;
22476;SDS011;11405;51.698;-0.292;2022-08-19T05:48:04;2.95;;;0.80;;
22476;SDS011;11405;51.698;-0.292;2022-08-19T05:50:30;3.15;;;0.77;;
22476;SDS011;11405;51.698;-0.292;2022-08-19T05:52:56;0.93;;;0.73;;
22476;SDS011;11405;51.698;-0.292;2022-08-19T05:55:22;1.10;;;0.80;;
22476;SDS011;11405;51.698;-0.292;2022-08-19T05:57:48;2.17;;;0.80;;
22476;SDS011;11405;51.698;-0.292;2022-08-19T06:00:14;0.63;;;0.60;;
22476;SDS011;11405;51.698;-0.292;2022-08-19T06:02:40;1.13;;;0.68;;
22476;SDS011;11405;51.698;-0.292;2022-08-19T06:05:07;1.15;;;0.75;;
22476;SDS011;11405;51.698;-0.292;2022-08-19T06:07:34;2.00;;;0.60;;
22476;SDS011;11405;51.698;-0.292;2022-08-19T06:12:33;1.35;;;0.77;;
22476;SDS011;11405;51.698;-0.292;2022-08-19T06:15:09;0.77;;;0.50;;
22476;SDS011;11405;51.698;-0.292;2022-08-19T06:17:36;0.63;;;0.60;;
22476;SDS011;11405;51.698;-0.292;2022-08-19T06:20:06;0.85;;;0.50;;
22476;SDS011;11405;51.698;-0.292;2022-08-19T06:22:37;0.50;;;0.40;;
22476;SDS011;11405;51.698;-0.292;2022-08-19T06:25:04;0.50;;;0.30;;
22476;SDS011;11405;51.698;-0.292;2022-08-19T06:27:30;1.77;;;0.60;;
22476;SDS011;11405;51.698;-0.292;2022-08-19T06:29:57;2.40;;;0.68;;
22476;SDS011;11405;51.698;-0.292;2022-08-19T06:32:23;2.97;;;0.60;;
22476;SDS011;11405;51.698;-0.292;2022-08-19T06:34:50;1.02;;;0.30;;
22476;SDS011;11405;51.698;-0.292;2022-08-19T06:37:16;4.10;;;0.45;;
22476;SDS011;11405;51.698;-0.292;2022-08-19T06:39:42;0.50;;;0.40;;
22476;SDS011;11405;51.698;-0.292;2022-08-19T06:42:09;1.60;;;0.30;;
22476;SDS011;11405;51.698;-0.292;2022-08-19T06:44:41;1.58;;;0.47;;
22476;SDS011;11405;51.698;-0.292;2022-08-19T06:47:08;0.45;;;0.30;;
22476;SDS011;11405;51.698;-0.292;2022-08-19T06:49:34;0.40;;;0.30;;
22476;SDS011;11405;51.698;-0.292;2022-08-19T06:52:01;4.22;;;0.60;;
22476;SDS011;11405;51.698;-0.292;2022-08-19T06:54:27;0.40;;;0.40;;
22476;SDS011;11405;51.698;-0.292;2022-08-19T06:56:57;3.20;;;0.60;;
22476;SDS011;11405;51.698;-0.292;2022-08-19T06:59:25;1.73;;;0.40;;
22476;SDS011;11405;51.698;-0.292;2022-08-19T07:01:53;3.05;;;0.45;;
22476;SDS011;11405;51.698;-0.292;2022-08-19T07:04:20;0.70;;;0.25;;
22476;SDS011;11405;51.698;-0.292;2022-08-19T07:06:46;2.55;;;0.40;;
22476;SDS011;11405;51.698;-0.292;2022-08-19T07:09:13;0.50;;;0.35;;
22476;SDS011;11405;51.698;-0.292;2022-08-19T07:11:43;0.30;;;0.20;;
22476;SDS011;11405;51.698;-0.292;2022-08-19T07:14:10;0.93;;;0.40;;
22476;SDS011;11405;51.698;-0.292;2022-08-19T07:16:36;0.85;;;0.50;;
22476;SDS011;11405;51.698;-0.292;2022-08-19T07:19:02;0.52;;;0.30;;
22476;SDS011;11405;51.698;-0.292;2022-08-19T07:21:28;0.52;;;0.20;;
22476;SDS011;11405;51.698;-0.292;2022-08-19T07:23:54;3.30;;;0.40;;
22476;SDS011;11405;51.698;-0.292;2022-08-19T07:26:22;3.55;;;0.50;;
22476;SDS011;11405;51.698;-0.292;2022-08-19T07:28:48;1.75;;;0.40;;
22476;SDS011;11405;51.698;-0.292;2022-08-19T07:31:16;2.50;;;0.40;;
22476;SDS011;11405;51.698;-0.292;2022-08-19T07:33:46;0.55;;;0.43;;
22476;SDS011;11405;51.698;-0.292;2022-08-19T07:36:13;0.88;;;0.38;;
22476;SDS011;11405;51.698;-0.292;2022-08-19T07:38:40;0.85;;;0.20;;
22476;SDS011;11405;51.698;-0.292;2022-08-19T07:41:07;2.60;;;0.30;;
22476;SDS011;11405;51.698;-0.292;2022-08-19T07:43:33;1.73;;;0.47;;
22476;SDS011;11405;51.698;-0.292;2022-08-19T07:45:59;0.75;;;0.50;;
22476;SDS011;11405;51.698;-0.292;2022-08-19T07:48:26;0.75;;;0.32;;
22476;SDS011;11405;51.698;-0.292;2022-08-19T07:50:54;0.98;;;0.43;;
22476;SDS011;11405;51.698;-0.292;2022-08-19T07:53:21;1.70;;;0.40;;
22476;SDS011;11405;51.698;-0.292;2022-08-19T07:55:47;2.20;;;0.40;;
22476;SDS011;11405;51.698;-0.292;2022-08-19T07:58:15;1.40;;;0.30;;
22476;SDS011;11405;51.698;-0.292;2022-08-19T08:00:42;1.05;;;0.40;;
22476;SDS011;11405;51.698;-0.292;2022-08-19T08:03:08;0.70;;;0.40;;
22476;SDS011;11405;51.698;-0.292;2022-08-19T08:05:34;4.65;;;0.65;;
22476;SDS011;11405;51.698;-0.292;2022-08-19T08:08:18;1.85;;;0.75;;
22476;SDS011;11405;51.698;-0.292;2022-08-19T08:11:04;1.73;;;0.40;;
22476;SDS011;11405;51.698;-0.292;2022-08-19T08:13:31;5.40;;;0.68;;
22476;SDS011;11405;51.698;-0.292;2022-08-19T08:16:00;3.40;;;0.40;;
22476;SDS011;11405;51.698;-0.292;2022-08-19T08:18:26;1.67;;;0.70;;
22476;SDS011;11405;51.698;-0.292;2022-08-19T08:20:52;2.80;;;0.30;;
22476;SDS011;11405;51.698;-0.292;2022-08-19T08:23:18;3.00;;;0.57;;
22476;SDS011;11405;51.698;-0.292;2022-08-19T08:25:47;0.95;;;0.38;;
22476;SDS011;11405;51.698;-0.292;2022-08-19T08:30:39;3.17;;;0.50;;
22476;SDS011;11405;51.698;-0.292;2022-08-19T08:33:07;5.57;;;0.68;;
22476;SDS011;11405;51.698;-0.292;2022-08-19T08:35:33;2.20;;;0.60;;
22476;SDS011;11405;51.698;-0.292;2022-08-19T08:37:59;6.40;;;0.63;;
22476;SDS011;11405;51.698;-0.292;2022-08-19T08:42:57;3.30;;;0.55;;
22476;SDS011;11405;51.698;-0.292;2022-08-19T08:45:26;4.03;;;0.93;;
22476;SDS011;11405;51.698;-0.292;2022-08-19T08:47:53;7.07;;;0.77;;
22476;SDS011;11405;51.698;-0.292;2022-08-19T08:50:39;4.72;;;0.60;;
22476;SDS011;11405;51.698;-0.292;2022-08-19T08:53:08;2.60;;;0.82;;
22476;SDS011;11405;51.698;-0.292;2022-08-19T08:55:36;1.80;;;0.73;;
22476;SDS011;11405;51.698;-0.292;2022-08-19T08:58:24;2.22;;;0.70;;
22476;SDS011;11405;51.698;-0.292;2022-08-19T09:00:51;2.42;;;0.52;;
22476;SDS011;11405;51.698;-0.292;2022-08-19T09:03:25;4.50;;;0.70;;
22476;SDS011;11405;51.698;-0.292;2022-08-19T09:06:02;3.42;;;0.75;;
22476;SDS011;11405;51.698;-0.292;2022-08-19T09:10:55;4.80;;;0.75;;
22476;SDS011;11405;51.698;-0.292;2022-08-19T09:15:50;3.47;;;0.68;;
22476;SDS011;11405;51.698;-0.292;2022-08-19T09:18:18;4.25;;;1.00;;
22476;SDS011;11405;51.698;-0.292;2022-08-19T09:20:44;4.85;;;0.90;;
22476;SDS011;11405;51.698;-0.292;2022-08-19T09:23:12;4.50;;;1.00;;
22476;SDS011;11405;51.698;-0.292;2022-08-19T09:25:38;2.53;;;0.90;;
22476;SDS011;11405;51.698;-0.292;2022-08-19T09:28:05;2.22;;;0.65;;
22476;SDS011;11405;51.698;-0.292;2022-08-19T09:30:36;2.78;;;0.88;;
22476;SDS011;11405;51.698;-0.292;2022-08-19T09:33:04;7.85;;;0.70;;
22476;SDS011;11405;51.698;-0.292;2022-08-19T09:35:31;2.47;;;0.40;;
22476;SDS011;11405;51.698;-0.292;2022-08-19T09:37:57;2.22;;;0.70;;
22476;SDS011;11405;51.698;-0.292;2022-08-19T09:40:24;3.22;;;0.65;;
22476;SDS011;11405;51.698;-0.292;2022-08-19T09:42:51;1.35;;;0.60;;
22476;SDS011;11405;51.698;-0.292;2022-08-19T09:45:18;2.92;;;0.90;;
22476;SDS011;11405;51.698;-0.292;2022-08-19T09:47:46;3.17;;;0.55;;
22476;SDS011;11405;51.698;-0.292;2022-08-19T09:50:12;2.55;;;0.80;;
22476;SDS011;11405;51.698;-0.292;2022-08-19T09:55:08;3.85;;;0.73;;
22476;SDS011;11405;51.698;-0.292;2022-08-19T09:57:34;1.85;;;0.80;;
22476;SDS011;11405;51.698;-0.292;2022-08-19T10:00:01;4.03;;;0.80;;
22476;SDS011;11405;51.698;-0.292;2022-08-19T10:04:53;3.08;;;0.70;;
22476;SDS011;11405;51.698;-0.292;2022-08-19T10:07:37;3.35;;;0.73;;
22476;SDS011;11405;51.698;-0.292;2022-08-19T10:10:04;2.38;;;0.90;;
22476;SDS011;11405;51.698;-0.292;2022-08-19T10:12:31;3.17;;;0.80;;
22476;SDS011;11405;51.698;-0.292;2022-08-19T10:14:58;4.20;;;1.10;;
22476;SDS011;11405;51.698;-0.292;2022-08-19T10:17:24;1.63;;;0.57;;
22476;SDS011;11405;51.698;-0.292;2022-08-19T10:19:50;2.25;;;0.85;;
22476;SDS011;11405;51.698;-0.292;2022-08-19T10:22:17;3.88;;;0.50;;
22476;SDS011;11405;51.698;-0.292;2022-08-19T10:24:43;5.60;;;0.57;;
22476;SDS011;11405;51.698;-0.292;2022-08-19T10:27:09;3.97;;;0.70;;
22476;SDS011;11405;51.698;-0.292;2022-08-19T10:29:37;5.75;;;1.13;;
22476;SDS011;11405;51.698;-0.292;2022-08-19T10:32:04;2.00;;;0.60;;
22476;SDS011;11405;51.698;-0.292;2022-08-19T10:34:32;1.73;;;0.52;;
22476;SDS011;11405;51.698;-0.292;2022-08-19T10:36:59;4.68;;;1.00;;
22476;SDS011;11405;51.698;-0.292;2022-08-19T10:39:25;2.97;;;0.80;;
22476;SDS011;11405;51.698;-0.292;2022-08-19T10:41:54;4.05;;;0.70;;
22476;SDS011;11405;51.698;-0.292;2022-08-19T10:44:21;1.20;;;0.50;;
22476;SDS011;11405;51.698;-0.292;2022-08-19T10:46:48;3.55;;;0.63;;
22476;SDS011;11405;51.698;-0.292;2022-08-19T10:49:15;3.17;;;0.60;;
22476;SDS011;11405;51.698;-0.292;2022-08-19T10:51:41;2.15;;;0.75;;
22476;SDS011;11405;51.698;-0.292;2022-08-19T10:54:26;4.90;;;0.80;;
22476;SDS011;11405;51.698;-0.292;2022-08-19T10:57:13;4.88;;;0.90;;
22476;SDS011;11405;51.698;-0.292;2022-08-19T10:59:39;2.38;;;0.60;;
22476;SDS011;11405;51.698;-0.292;2022-08-19T11:02:06;5.22;;;0.82;;
22476;SDS011;11405;51.698;-0.292;2022-08-19T11:04:34;2.55;;;0.70;;
22476;SDS011;11405;51.698;-0.292;2022-08-19T11:07:00;7.88;;;1.08;;
22476;SDS011;11405;51.698;-0.292;2022-08-19T11:09:27;3.58;;;0.82;;
22476;SDS011;11405;51.698;-0.292;2022-08-19T11:11:53;3.70;;;0.80;;
22476;SDS011;11405;51.698;-0.292;2022-08-19T11:16:46;4.72;;;1.00;;
22476;SDS011;11405;51.698;-0.292;2022-08-19T11:19:13;2.85;;;1.25;;
22476;SDS011;11405;51.698;-0.292;2022-08-19T11:21:41;4.97;;;0.90;;
22476;SDS011;11405;51.698;-0.292;2022-08-19T11:24:12;5.53;;;1.08;;
22476;SDS011;11405;51.698;-0.292;2022-08-19T11:26:40;5.45;;;0.93;;
22476;SDS011;11405;51.698;-0.292;2022-08-19T11:29:07;4.15;;;0.80;;
22476;SDS011;11405;51.698;-0.292;2022-08-19T11:31:36;8.15;;;0.90;;
22476;SDS011;11405;51.698;-0.292;2022-08-19T11:34:05;3.67;;;1.10;;
22476;SDS011;11405;51.698;-0.292;2022-08-19T11:36:31;2.70;;;0.98;;
22476;SDS011;11405;51.698;-0.292;2022-08-19T11:38:58;6.80;;;1.00;;
22476;SDS011;11405;51.698;-0.292;2022-08-19T11:41:24;5.28;;;1.00;;
22476;SDS011;11405;51.698;-0.292;2022-08-19T11:43:51;1.63;;;0.73;;
22476;SDS011;11405;51.698;-0.292;2022-08-19T11:46:19;11.30;;;0.98;;
22476;SDS011;11405;51.698;-0.292;2022-08-19T11:48:45;4.47;;;1.10;;
22476;SDS011;11405;51.698;-0.292;2022-08-19T11:51:14;5.72;;;1.02;;
22476;SDS011;11405;51.698;-0.292;2022-08-19T11:53:40;4.63;;;1.15;;
22476;SDS011;11405;51.698;-0.292;2022-08-19T11:58:33;1.52;;;0.70;;
22476;SDS011;11405;51.698;-0.292;2022-08-19T12:00:59;4.97;;;0.90;;
22476;SDS011;11405;51.698;-0.292;2022-08-19T12:03:25;5.82;;;0.93;;
22476;SDS011;11405;51.698;-0.292;2022-08-19T12:05:51;4.10;;;1.15;;
22476;SDS011;11405;51.698;-0.292;2022-08-19T12:08:18;5.95;;;1.05;;
22476;SDS011;11405;51.698;-0.292;2022-08-19T12:10:44;6.82;;;1.42;;
22476;SDS011;11405;51.698;-0.292;2022-08-19T12:13:11;4.07;;;0.80;;
22476;SDS011;11405;51.698;-0.292;2022-08-19T12:15:43;5.43;;;0.77;;
22476;SDS011;11405;51.698;-0.292;2022-08-19T12:18:10;4.13;;;1.60;;
22476;SDS011;11405;51.698;-0.292;2022-08-19T12:20:36;3.05;;;0.70;;
22476;SDS011;11405;51.698;-0.292;2022-08-19T12:23:03;2.08;;;0.40;;
22476;SDS011;11405;51.698;-0.292;2022-08-19T12:25:30;5.63;;;1.15;;
22476;SDS011;11405;51.698;-0.292;2022-08-19T12:27:56;5.03;;;1.08;;
22476;SDS011;11405;51.698;-0.292;2022-08-19T12:30:22;6.38;;;0.90;;
22476;SDS011;11405;51.698;-0.292;2022-08-19T12:32:48;2.58;;;0.80;;
22476;SDS011;11405;51.698;-0.292;2022-08-19T12:35:16;5.63;;;1.33;;
22476;SDS011;11405;51.698;-0.292;2022-08-19T12:37:42;5.40;;;1.17;;
22476;SDS011;11405;51.698;-0.292;2022-08-19T12:40:09;5.68;;;0.93;;
22476;SDS011;11405;51.698;-0.292;2022-08-19T12:42:39;7.85;;;0.80;;
22476;SDS011;11405;51.698;-0.292;2022-08-19T12:45:09;5.32;;;0.70;;
22476;SDS011;11405;51.698;-0.292;2022-08-19T12:47:35;10.60;;;1.00;;
22476;SDS011;11405;51.698;-0.292;2022-08-19T12:50:02;2.67;;;0.57;;
22476;SDS011;11405;51.698;-0.292;2022-08-19T12:52:29;5.55;;;0.90;;
22476;SDS011;11405;51.698;-0.292;2022-08-19T12:54:55;5.63;;;0.85;;
22476;SDS011;11405;51.698;-0.292;2022-08-19T12:57:22;3.42;;;1.05;;
22476;SDS011;11405;51.698;-0.292;2022-08-19T12:59:51;2.92;;;0.85;;
22476;SDS011;11405;51.698;-0.292;2022-08-19T13:02:18;6.13;;;0.60;;
22476;SDS011;11405;51.698;-0.292;2022-08-19T13:04:45;6.97;;;0.73;;
22476;SDS011;11405;51.698;-0.292;2022-08-19T13:07:11;3.88;;;0.60;;
22476;SDS011;11405;51.698;-0.292;2022-08-19T13:09:37;6.63;;;0.80;;
22476;SDS011;11405;51.698;-0.292;2022-08-19T13:12:06;3.40;;;0.70;;
22476;SDS011;11405;51.698;-0.292;2022-08-19T13:14:33;2.78;;;0.63;;
22476;SDS011;11405;51.698;-0.292;2022-08-19T13:16:59;4.13;;;1.48;;
22476;SDS011;11405;51.698;-0.292;2022-08-19T13:19:25;3.15;;;0.98;;
22476;SDS011;11405;51.698;-0.292;2022-08-19T13:21:52;4.50;;;1.05;;
22476;SDS011;11405;51.698;-0.292;2022-08-19T13:24:20;4.78;;;0.65;;
22476;SDS011;11405;51.698;-0.292;2022-08-19T13:26:46;3.53;;;0.68;;
22476;SDS011;11405;51.698;-0.292;2022-08-19T13:29:12;2.65;;;0.63;;
22476;SDS011;11405;51.698;-0.292;2022-08-19T13:31:57;6.15;;;0.70;;
22476;SDS011;11405;51.698;-0.292;2022-08-19T13:34:42;6.03;;;0.82;;
22476;SDS011;11405;51.698;-0.292;2022-08-19T13:37:09;4.57;;;0.55;;
22476;SDS011;11405;51.698;-0.292;2022-08-19T13:39:35;6.70;;;0.70;;
22476;SDS011;11405;51.698;-0.292;2022-08-19T13:42:02;4.95;;;0.77;;
22476;SDS011;11405;51.698;-0.292;2022-08-19T13:44:29;8.82;;;0.85;;
22476;SDS011;11405;51.698;-0.292;2022-08-19T13:46:59;4.18;;;0.77;;
22476;SDS011;11405;51.698;-0.292;2022-08-19T13:49:27;2.75;;;0.70;;
22476;SDS011;11405;51.698;-0.292;2022-08-19T13:51:55;2.20;;;0.57;;
22476;SDS011;11405;51.698;-0.292;2022-08-19T13:54:21;4.53;;;1.50;;
22476;SDS011;11405;51.698;-0.292;2022-08-19T13:56:47;3.22;;;0.80;;
22476;SDS011;11405;51.698;-0.292;2022-08-19T13:59:13;4.53;;;0.90;;
22476;SDS011;11405;51.698;-0.292;2022-08-19T14:01:39;4.53;;;0.85;;
22476;SDS011;11405;51.698;-0.292;2022-08-19T14:04:06;9.60;;;0.50;;
22476;SDS011;11405;51.698;-0.292;2022-08-19T14:06:33;1.48;;;0.63;;
22476;SDS011;11405;51.698;-0.292;2022-08-19T14:11:26;4.88;;;0.70;;
22476;SDS011;11405;51.698;-0.292;2022-08-19T14:13:53;2.47;;;0.93;;
22476;SDS011;11405;51.698;-0.292;2022-08-19T14:16:19;5.78;;;1.08;;
22476;SDS011;11405;51.698;-0.292;2022-08-19T14:18:46;8.13;;;1.35;;
22476;SDS011;11405;51.698;-0.292;2022-08-19T14:21:22;2.33;;;0.90;;
22476;SDS011;11405;51.698;-0.292;2022-08-19T14:23:49;4.95;;;0.63;;
22476;SDS011;11405;51.698;-0.292;2022-08-19T14:26:16;3.67;;;0.98;;
22476;SDS011;11405;51.698;-0.292;2022-08-19T14:28:43;2.65;;;0.82;;
22476;SDS011;11405;51.698;-0.292;2022-08-19T14:31:13;6.13;;;0.75;;
22476;SDS011;11405;51.698;-0.292;2022-08-19T14:33:44;4.55;;;1.05;;
22476;SDS011;11405;51.698;-0.292;2022-08-19T14:36:10;7.95;;;0.63;;
22476;SDS011;11405;51.698;-0.292;2022-08-19T14:38:36;4.32;;;0.95;;
22476;SDS011;11405;51.698;-0.292;2022-08-19T14:41:07;2.72;;;0.70;;
22476;SDS011;11405;51.698;-0.292;2022-08-19T14:43:33;2.05;;;0.40;;
22476;SDS011;11405;51.698;-0.292;2022-08-19T14:45:59;8.05;;;0.75;;
22476;SDS011;11405;51.698;-0.292;2022-08-19T14:48:26;6.82;;;0.98;;
22476;SDS011;11405;51.698;-0.292;2022-08-19T14:50:52;5.80;;;0.80;;
22476;SDS011;11405;51.698;-0.292;2022-08-19T14:53:18;4.18;;;1.13;;
22476;SDS011;11405;51.698;-0.292;2022-08-19T14:55:45;6.63;;;1.05;;
22476;SDS011;11405;51.698;-0.292;2022-08-19T15:00:37;4.07;;;0.93;;
22476;SDS011;11405;51.698;-0.292;2022-08-19T15:03:03;6.28;;;0.65;;
22476;SDS011;11405;51.698;-0.292;2022-08-19T15:05:29;3.70;;;0.60;;
22476;SDS011;11405;51.698;-0.292;2022-08-19T15:07:55;6.10;;;0.70;;
22476;SDS011;11405;51.698;-0.292;2022-08-19T15:10:22;8.27;;;0.70;;
22476;SDS011;11405;51.698;-0.292;2022-08-19T15:12:49;6.15;;;0.90;;
22476;SDS011;11405;51.698;-0.292;2022-08-19T15:15:15;5.85;;;0.80;;
22476;SDS011;11405;51.698;-0.292;2022-08-19T15:17:44;5.13;;;0.63;;
22476;SDS011;11405;51.698;-0.292;2022-08-19T15:20:12;6.28;;;0.73;;